createdAt,value
2023-02-13T00:01:54.335Z,13.47
2023-02-13T00:04:20.891Z,13.21
2023-02-13T00:06:50.525Z,13.47
2023-02-13T00:09:17.260Z,13.41
2023-02-13T00:11:43.872Z,13.47
2023-02-13T00:14:10.658Z,13.69
2023-02-13T00:16:37.156Z,13.25
2023-02-13T00:19:04.064Z,13.65
2023-02-13T00:21:30.757Z,13.18
2023-02-13T00:23:57.300Z,13.51
2023-02-13T00:26:24.708Z,13.17
2023-02-13T00:28:51.363Z,13.69
2023-02-13T00:31:20.193Z,13.46
2023-02-13T00:33:47.252Z,13.67
2023-02-13T00:36:20.286Z,13.75
2023-02-13T00:38:47.389Z,13.54
2023-02-13T00:41:14.413Z,13.61
2023-02-13T00:43:40.868Z,13.80
2023-02-13T00:46:07.582Z,13.39
2023-02-13T00:48:35.133Z,13.58
2023-02-13T00:51:02.009Z,13.63
2023-02-13T00:53:28.603Z,13.73
2023-02-13T00:55:55.186Z,13.50
2023-02-13T00:58:22.169Z,13.62
2023-02-13T01:00:49.142Z,13.59
2023-02-13T01:03:16.643Z,13.63
2023-02-13T01:05:44.425Z,13.60
2023-02-13T01:08:12.202Z,13.72
2023-02-13T01:10:39.578Z,13.53
2023-02-13T01:13:06.484Z,13.74
2023-02-13T01:15:33.670Z,13.74
2023-02-13T01:18:00.957Z,13.77
2023-02-13T01:20:28.850Z,13.76
2023-02-13T01:22:56.050Z,13.72
2023-02-13T01:25:23.201Z,13.68
2023-02-13T01:27:50.011Z,13.78
2023-02-13T01:30:18.174Z,13.59
2023-02-13T01:32:46.211Z,13.72
2023-02-13T01:35:13.879Z,13.56
2023-02-13T01:37:40.975Z,13.33
2023-02-13T01:40:10.183Z,13.75
2023-02-13T01:42:36.938Z,13.76
2023-02-13T01:45:21.224Z,13.82
2023-02-13T01:47:51.175Z,13.67
2023-02-13T01:50:25.667Z,12.99
2023-02-13T01:53:29.201Z,13.40
2023-02-13T01:55:59.925Z,13.55
2023-02-13T01:58:31.263Z,13.59
2023-02-13T02:00:59.054Z,13.01
2023-02-13T02:03:39.280Z,13.49
2023-02-13T02:06:07.920Z,13.80
2023-02-13T02:08:34.717Z,13.48
2023-02-13T02:11:10.389Z,13.27
2023-02-13T02:13:37.599Z,13.21
2023-02-13T02:16:04.158Z,13.45
2023-02-13T02:18:30.649Z,13.43
2023-02-13T02:21:00.175Z,13.64
2023-02-13T02:23:56.053Z,13.51
2023-02-13T02:26:45.596Z,13.19
2023-02-13T02:29:23.607Z,13.03
2023-02-13T02:32:15.141Z,12.83
2023-02-13T02:35:29.459Z,12.93
2023-02-13T02:37:55.908Z,12.55
2023-02-13T02:40:40.574Z,12.15
2023-02-13T02:43:12.928Z,12.57
2023-02-13T02:45:50.859Z,12.76
2023-02-13T02:48:40.866Z,12.54
2023-02-13T02:51:14.216Z,12.26
2023-02-13T02:54:30.757Z,12.34
2023-02-13T02:57:03.402Z,12.06
2023-02-13T02:59:48.561Z,11.96
2023-02-13T03:02:34.740Z,11.68
2023-02-13T03:05:21.460Z,11.94
2023-02-13T03:07:47.998Z,11.93
2023-02-13T03:10:41.234Z,11.83
2023-02-13T03:13:21.648Z,11.17
2023-02-13T03:16:11.968Z,10.86
2023-02-13T03:18:59.521Z,11.16
2023-02-13T03:22:14.076Z,11.61
2023-02-13T03:24:50.955Z,12.17
2023-02-13T03:27:54.425Z,11.88
2023-02-13T03:30:56.309Z,12.02
2023-02-13T03:33:42.244Z,11.91
2023-02-13T03:36:48.313Z,11.69
2023-02-13T03:39:27.122Z,11.56
2023-02-13T03:42:38.468Z,11.54
2023-02-13T03:45:30.994Z,11.75
2023-02-13T03:47:59.206Z,11.94
2023-02-13T03:50:26.375Z,11.45
2023-02-13T03:53:06.978Z,11.42
2023-02-13T03:55:59.051Z,11.60
2023-02-13T03:58:55.056Z,11.98
2023-02-13T04:01:26.363Z,12.23
2023-02-13T04:03:59.387Z,11.70
2023-02-13T04:06:33.274Z,11.40
2023-02-13T04:08:59.831Z,11.34
2023-02-13T04:11:38.832Z,11.55
2023-02-13T04:14:16.830Z,11.78
2023-02-13T04:16:46.589Z,11.16
2023-02-13T04:19:13.564Z,11.12
2023-02-13T04:21:40.640Z,11.66
2023-02-13T04:24:07.722Z,11.32
2023-02-13T04:26:40.330Z,11.00
2023-02-13T04:29:06.876Z,10.93
2023-02-13T04:31:33.688Z,10.72
2023-02-13T04:34:00.262Z,10.75
2023-02-13T04:36:27.008Z,10.07
2023-02-13T04:38:53.608Z,10.21
2023-02-13T04:41:20.215Z,9.82
2023-02-13T04:43:46.714Z,10.24
2023-02-13T04:46:13.531Z,11.02
2023-02-13T04:48:40.071Z,10.15
2023-02-13T04:51:06.562Z,11.16
2023-02-13T04:53:33.125Z,11.17
2023-02-13T04:55:59.580Z,11.03
2023-02-13T04:58:26.390Z,9.92
2023-02-13T05:00:52.868Z,10.54
2023-02-13T05:03:19.453Z,10.14
2023-02-13T05:05:45.981Z,10.02
2023-02-13T05:08:12.571Z,10.19
2023-02-13T05:10:39.132Z,10.57
2023-02-13T05:13:05.714Z,10.56
2023-02-13T05:15:32.488Z,9.93
2023-02-13T05:17:59.449Z,10.59
2023-02-13T05:20:25.932Z,10.76
2023-02-13T05:23:12.622Z,10.99
2023-02-13T05:25:41.258Z,10.85
2023-02-13T05:28:27.011Z,10.97
2023-02-13T05:30:53.610Z,10.38
2023-02-13T05:33:20.184Z,10.61
2023-02-13T05:35:46.971Z,11.15
2023-02-13T05:38:13.457Z,11.24
2023-02-13T05:40:39.954Z,11.08
2023-02-13T05:43:06.589Z,10.81
2023-02-13T05:45:33.064Z,9.83
2023-02-13T05:47:59.746Z,10.50
2023-02-13T05:50:26.249Z,10.66
2023-02-13T05:52:52.753Z,10.58
2023-02-13T05:55:19.232Z,10.68
2023-02-13T05:57:45.709Z,11.19
2023-02-13T06:00:12.784Z,11.85
2023-02-13T06:02:39.546Z,12.01
2023-02-13T06:05:06.282Z,12.05
2023-02-13T06:07:33.223Z,11.30
2023-02-13T06:09:59.736Z,10.95
2023-02-13T06:12:26.394Z,11.29
2023-02-13T06:14:52.953Z,11.78
2023-02-13T06:17:19.478Z,11.61
2023-02-13T06:19:46.151Z,11.34
2023-02-13T06:22:12.595Z,11.66
2023-02-13T06:24:39.059Z,11.93
2023-02-13T06:27:05.549Z,12.00
2023-02-13T06:29:32.955Z,11.82
2023-02-13T06:31:59.722Z,12.08
2023-02-13T06:34:26.414Z,11.99
2023-02-13T06:36:52.996Z,12.04
2023-02-13T06:39:19.475Z,11.16
2023-02-13T06:41:45.934Z,12.08
2023-02-13T06:44:12.579Z,12.34
2023-02-13T06:46:39.124Z,12.07
2023-02-13T06:49:05.768Z,11.58
2023-02-13T06:51:32.228Z,12.01
2023-02-13T06:53:58.775Z,12.24
2023-02-13T06:56:26.390Z,12.45
2023-02-13T06:58:52.863Z,12.56
2023-02-13T07:01:19.901Z,12.13
2023-02-13T07:03:48.647Z,12.30
2023-02-13T07:06:21.547Z,12.60
2023-02-13T07:08:48.489Z,12.77
2023-02-13T07:11:23.334Z,12.74
2023-02-13T07:13:50.301Z,12.65
2023-02-13T07:16:17.181Z,12.66
2023-02-13T07:18:43.724Z,12.67
2023-02-13T07:21:10.332Z,12.55
2023-02-13T07:23:36.889Z,12.60
2023-02-13T07:26:03.980Z,12.66
2023-02-13T07:28:30.878Z,12.40
2023-02-13T07:30:57.897Z,12.64
2023-02-13T07:33:24.604Z,12.27
2023-02-13T07:35:52.348Z,12.50
2023-02-13T07:38:19.063Z,12.63
2023-02-13T07:40:45.941Z,12.80
2023-02-13T07:43:13.251Z,13.03
2023-02-13T07:45:39.794Z,12.75
2023-02-13T07:48:06.305Z,12.95
2023-02-13T07:50:33.019Z,12.77
2023-02-13T07:53:01.619Z,13.08
2023-02-13T07:55:29.181Z,12.98
2023-02-13T07:57:56.014Z,12.98
2023-02-13T08:00:23.122Z,13.11
2023-02-13T08:02:50.519Z,12.77
2023-02-13T08:05:17.104Z,13.22
2023-02-13T08:07:43.624Z,12.97
2023-02-13T08:10:31.777Z,13.00
2023-02-13T08:12:58.352Z,13.19
2023-02-13T08:15:24.931Z,12.29
2023-02-13T08:17:51.448Z,11.91
2023-02-13T08:20:18.062Z,11.93
2023-02-13T08:22:44.543Z,12.17
2023-02-13T08:25:11.046Z,12.57
2023-02-13T08:27:38.361Z,12.97
2023-02-13T08:30:06.406Z,13.58
2023-02-13T08:32:44.866Z,13.68
2023-02-13T08:35:18.487Z,13.42
2023-02-13T08:37:46.599Z,13.49
2023-02-13T08:40:14.632Z,13.62
2023-02-13T08:42:41.779Z,13.42
2023-02-13T08:45:10.515Z,13.39
2023-02-13T08:47:37.871Z,13.99
2023-02-13T08:50:04.777Z,14.28
2023-02-13T08:52:31.306Z,14.61
2023-02-13T08:54:57.823Z,14.85
2023-02-13T08:57:24.330Z,14.91
2023-02-13T08:59:50.806Z,15.28
2023-02-13T09:02:17.391Z,15.63
2023-02-13T09:04:43.916Z,15.92
2023-02-13T09:07:10.495Z,15.36
2023-02-13T09:09:37.056Z,15.69
2023-02-13T09:12:03.935Z,15.18
2023-02-13T09:14:30.640Z,15.10
2023-02-13T09:16:57.186Z,15.03
2023-02-13T09:19:23.844Z,15.66
2023-02-13T09:21:50.355Z,15.33
2023-02-13T09:24:16.816Z,16.39
2023-02-13T09:26:43.311Z,16.55
2023-02-13T09:29:09.918Z,16.94
2023-02-13T09:31:36.620Z,16.93
2023-02-13T09:34:03.142Z,16.89
2023-02-13T09:36:29.603Z,17.08
2023-02-13T09:38:57.439Z,17.46
2023-02-13T09:41:26.416Z,17.36
2023-02-13T09:44:02.971Z,17.61
2023-02-13T09:46:33.740Z,18.59
2023-02-13T09:49:03.206Z,18.46
2023-02-13T09:51:29.860Z,21.37
2023-02-13T09:54:02.692Z,23.11
2023-02-13T09:56:35.465Z,28.15
2023-02-13T09:59:06.929Z,31.58
2023-02-13T10:01:43.025Z,33.14
2023-02-13T10:04:47.328Z,35.81
2023-02-13T10:07:23.385Z,39.77
2023-02-13T10:10:18.085Z,42.60
2023-02-13T10:12:50.479Z,39.06
2023-02-13T10:15:41.922Z,39.29
2023-02-13T10:18:18.769Z,41.56
2023-02-13T10:20:48.754Z,43.69
2023-02-13T10:23:46.378Z,43.51
2023-02-13T10:26:24.308Z,43.40
2023-02-13T10:29:19.252Z,45.23
2023-02-13T10:31:47.090Z,41.32
2023-02-13T10:34:25.516Z,43.17
2023-02-13T10:36:52.194Z,43.00
2023-02-13T10:39:28.762Z,45.74
2023-02-13T10:42:17.281Z,46.97
2023-02-13T10:44:55.852Z,42.91
2023-02-13T10:47:45.927Z,43.92
2023-02-13T10:50:27.617Z,44.62
2023-02-13T10:53:06.493Z,44.39
2023-02-13T10:55:48.208Z,46.35
2023-02-13T10:58:30.391Z,46.06
2023-02-13T11:01:09.796Z,46.51
2023-02-13T11:03:36.599Z,47.28
2023-02-13T11:06:07.132Z,47.63
2023-02-13T11:08:40.621Z,47.85
2023-02-13T11:11:33.838Z,48.49
2023-02-13T11:14:23.913Z,48.38
2023-02-13T11:17:00.112Z,47.15
2023-02-13T11:19:33.437Z,47.75
2023-02-13T11:22:06.472Z,46.77
2023-02-13T11:24:33.655Z,47.18
2023-02-13T11:27:08.945Z,41.80
2023-02-13T11:29:37.355Z,43.17
2023-02-13T11:32:17.524Z,41.30
2023-02-13T11:34:45.408Z,41.98
2023-02-13T11:37:19.443Z,44.53
2023-02-13T11:39:51.113Z,46.54
2023-02-13T11:42:36.471Z,47.50
2023-02-13T11:45:23.843Z,47.55
2023-02-13T11:47:50.603Z,45.70
2023-02-13T11:50:37.726Z,47.83
2023-02-13T11:53:25.733Z,48.31
2023-02-13T11:56:21.762Z,45.44
2023-02-13T11:59:01.372Z,45.01
2023-02-13T12:01:29.132Z,46.54
2023-02-13T12:04:19.068Z,42.35
2023-02-13T12:06:59.984Z,44.40
2023-02-13T12:09:29.130Z,46.42
2023-02-13T12:12:02.656Z,46.37
2023-02-13T12:14:40.755Z,46.80
2023-02-13T12:17:14.390Z,45.23
2023-02-13T12:19:49.572Z,46.82
2023-02-13T12:22:37.557Z,47.13
2023-02-13T12:25:33.502Z,46.38
2023-02-13T12:28:11.953Z,40.91
2023-02-13T12:30:47.673Z,42.88
2023-02-13T12:33:40.300Z,39.35
2023-02-13T12:36:31.122Z,39.38
2023-02-13T12:39:18.587Z,36.34
2023-02-13T12:42:09.496Z,34.33
2023-02-13T12:45:00.465Z,28.36
2023-02-13T12:47:30.732Z,26.50
2023-02-13T12:50:09.340Z,23.69
2023-02-13T12:52:56.164Z,22.05
2023-02-13T12:56:01.219Z,21.19
2023-02-13T12:58:46.417Z,19.76
2023-02-13T13:01:25.068Z,18.60
2023-02-13T13:04:15.228Z,18.06
2023-02-13T13:06:42.040Z,17.71
2023-02-13T13:09:40.026Z,17.51
2023-02-13T13:12:12.566Z,17.49
2023-02-13T13:15:00.629Z,17.86
2023-02-13T13:17:30.180Z,17.90
2023-02-13T13:20:08.896Z,17.68
2023-02-13T13:22:48.053Z,17.52
2023-02-13T13:25:20.731Z,17.18
2023-02-13T13:27:50.536Z,17.47
2023-02-13T13:30:29.572Z,17.10
2023-02-13T13:33:19.445Z,17.37
2023-02-13T13:35:58.467Z,17.32
2023-02-13T13:38:43.637Z,16.88
2023-02-13T13:41:13.143Z,17.10
2023-02-13T13:43:58.761Z,17.53
2023-02-13T13:46:35.040Z,17.83
2023-02-13T13:49:21.569Z,17.87
2023-02-13T13:51:48.072Z,17.83
2023-02-13T13:54:14.520Z,17.86
2023-02-13T13:56:53.408Z,16.90
2023-02-13T13:59:51.663Z,17.33
2023-02-13T14:02:18.473Z,16.57
2023-02-13T14:05:04.014Z,17.09
2023-02-13T14:07:35.672Z,17.38
2023-02-13T14:10:02.657Z,17.94
2023-02-13T14:12:29.166Z,17.58
2023-02-13T14:14:56.980Z,17.54
2023-02-13T14:17:45.330Z,17.15
2023-02-13T14:20:33.120Z,17.27
2023-02-13T14:23:17.788Z,17.25
2023-02-13T14:25:44.374Z,16.77
2023-02-13T14:28:22.366Z,17.74
2023-02-13T14:30:51.286Z,17.60
2023-02-13T14:33:25.446Z,16.70
2023-02-13T14:36:04.763Z,17.95
2023-02-13T14:38:31.544Z,18.14
2023-02-13T14:40:59.097Z,17.69
2023-02-13T14:43:39.241Z,17.37
2023-02-13T14:46:33.367Z,17.40
2023-02-13T14:49:07.395Z,17.57
2023-02-13T14:51:38.900Z,17.42
2023-02-13T14:54:13.659Z,17.05
2023-02-13T14:56:40.244Z,17.63
2023-02-13T14:59:13.610Z,17.74
2023-02-13T15:01:45.227Z,17.59
2023-02-13T15:04:19.383Z,17.90
2023-02-13T15:06:46.827Z,18.04
2023-02-13T15:09:22.230Z,17.44
2023-02-13T15:11:49.361Z,17.19
2023-02-13T15:14:15.769Z,17.36
2023-02-13T15:16:42.619Z,16.62
2023-02-13T15:19:15.152Z,16.53
2023-02-13T15:21:48.785Z,16.40
2023-02-13T15:24:15.537Z,16.87
2023-02-13T15:26:42.162Z,16.98
2023-02-13T15:29:25.911Z,17.06
2023-02-13T15:31:53.476Z,17.13
2023-02-13T15:34:35.582Z,16.78
2023-02-13T15:37:03.011Z,16.43
2023-02-13T15:39:31.421Z,15.46
2023-02-13T15:42:02.597Z,15.70
2023-02-13T15:44:30.681Z,15.81
2023-02-13T15:47:08.382Z,15.19
2023-02-13T15:49:39.040Z,15.24
2023-02-13T15:52:15.138Z,15.29
2023-02-13T15:54:55.130Z,15.31
2023-02-13T15:57:23.309Z,15.40
2023-02-13T15:59:50.351Z,15.35
2023-02-13T16:02:46.199Z,15.15
2023-02-13T16:05:14.314Z,15.26
2023-02-13T16:07:54.911Z,14.86
2023-02-13T16:10:32.604Z,14.99
2023-02-13T16:13:01.813Z,14.90
2023-02-13T16:15:30.357Z,14.76
2023-02-13T16:17:57.138Z,14.67
2023-02-13T16:20:26.651Z,15.01
2023-02-13T16:22:59.426Z,14.85
2023-02-13T16:25:29.069Z,14.79
2023-02-13T16:27:57.888Z,14.86
2023-02-13T16:30:34.008Z,14.90
2023-02-13T16:33:13.037Z,14.95
2023-02-13T16:35:55.046Z,15.01
2023-02-13T16:38:32.381Z,14.89
2023-02-13T16:41:04.255Z,14.96
2023-02-13T16:43:37.988Z,14.81
2023-02-13T16:46:19.761Z,14.83
2023-02-13T16:49:01.156Z,14.71
2023-02-13T16:51:43.175Z,14.72
2023-02-13T16:54:25.064Z,14.59
2023-02-13T16:57:13.306Z,14.53
2023-02-13T16:59:49.336Z,14.64
2023-02-13T17:02:15.921Z,14.61
2023-02-13T17:04:44.464Z,14.49
2023-02-13T17:07:32.121Z,14.50
2023-02-13T17:10:05.866Z,14.25
2023-02-13T17:12:36.862Z,14.46
2023-02-13T17:15:04.206Z,14.26
2023-02-13T17:17:32.267Z,14.20
2023-02-13T17:19:59.590Z,14.35
2023-02-13T17:22:30.202Z,14.31
2023-02-13T17:24:58.004Z,14.27
2023-02-13T17:27:24.482Z,14.27
2023-02-13T17:29:51.033Z,14.16
2023-02-13T17:32:19.899Z,14.08
2023-02-13T17:34:46.705Z,14.05
2023-02-13T17:37:27.174Z,14.03
2023-02-13T17:39:54.372Z,13.93
2023-02-13T17:42:24.704Z,13.93
2023-02-13T17:44:51.314Z,13.70
2023-02-13T17:47:18.387Z,13.47
2023-02-13T17:49:45.092Z,13.66
2023-02-13T17:52:15.858Z,13.55
2023-02-13T17:54:43.953Z,13.55
2023-02-13T17:57:11.754Z,13.48
2023-02-13T17:59:38.287Z,13.30
2023-02-13T18:02:11.616Z,13.45
2023-02-13T18:04:38.130Z,13.35
2023-02-13T18:07:04.939Z,13.38
2023-02-13T18:09:31.521Z,13.23
2023-02-13T18:12:05.309Z,13.16
2023-02-13T18:14:32.849Z,13.26
2023-02-13T18:16:59.737Z,13.23
2023-02-13T18:19:27.174Z,12.92
2023-02-13T18:21:53.596Z,13.25
2023-02-13T18:24:20.124Z,13.24
2023-02-13T18:26:46.781Z,13.19
2023-02-13T18:29:13.313Z,13.10
2023-02-13T18:31:40.593Z,12.94
2023-02-13T18:34:07.313Z,12.97
2023-02-13T18:36:33.865Z,13.00
2023-02-13T18:39:00.463Z,13.00
2023-02-13T18:41:26.950Z,12.93
2023-02-13T18:43:57.243Z,12.74
2023-02-13T18:46:24.110Z,12.83
2023-02-13T18:48:50.665Z,12.61
2023-02-13T18:51:17.117Z,12.63
2023-02-13T18:53:43.598Z,12.54
2023-02-13T18:56:11.550Z,12.56
2023-02-13T18:58:38.318Z,12.54
2023-02-13T19:01:09.856Z,12.51
2023-02-13T19:03:40.125Z,12.49
2023-02-13T19:06:09.072Z,12.51
2023-02-13T19:08:36.164Z,12.43
2023-02-13T19:11:07.543Z,12.51
2023-02-13T19:13:34.065Z,12.32
2023-02-13T19:16:08.269Z,12.41
2023-02-13T19:18:42.834Z,12.39
2023-02-13T19:21:09.663Z,12.16
2023-02-13T19:23:36.919Z,12.21
2023-02-13T19:26:07.749Z,12.10
2023-02-13T19:28:34.631Z,12.16
2023-02-13T19:31:03.245Z,12.23
2023-02-13T19:33:30.128Z,11.98
2023-02-13T19:35:58.218Z,12.09
2023-02-13T19:38:24.756Z,11.91
2023-02-13T19:40:51.896Z,12.04
2023-02-13T19:43:18.353Z,12.02
2023-02-13T19:45:44.876Z,12.03
2023-02-13T19:48:11.363Z,12.03
2023-02-13T19:50:39.082Z,11.87
2023-02-13T19:53:07.556Z,11.85
2023-02-13T19:55:34.297Z,11.84
2023-02-13T19:58:00.762Z,11.61
2023-02-13T20:00:27.379Z,11.65
2023-02-13T20:02:55.084Z,11.57
2023-02-13T20:05:21.669Z,11.44
2023-02-13T20:07:48.165Z,11.06
2023-02-13T20:10:14.935Z,11.34
2023-02-13T20:12:41.447Z,10.88
2023-02-13T20:15:08.279Z,11.25
2023-02-13T20:17:38.071Z,11.11
2023-02-13T20:20:05.084Z,11.14
2023-02-13T20:22:31.667Z,10.96
2023-02-13T20:24:58.185Z,11.13
2023-02-13T20:27:24.676Z,11.01
2023-02-13T20:29:53.327Z,10.73
2023-02-13T20:32:25.593Z,10.97
2023-02-13T20:34:59.607Z,10.87
2023-02-13T20:37:26.443Z,10.88
2023-02-13T20:39:52.971Z,10.80
2023-02-13T20:42:19.674Z,10.67
2023-02-13T20:44:46.758Z,10.66
2023-02-13T20:47:13.298Z,9.85
2023-02-13T20:49:39.815Z,10.59
2023-02-13T20:52:06.323Z,10.19
2023-02-13T20:54:32.942Z,10.49
2023-02-13T20:56:59.567Z,10.34
2023-02-13T20:59:26.104Z,10.01
2023-02-13T21:01:52.579Z,10.13
2023-02-13T21:04:20.672Z,10.09
2023-02-13T21:06:48.334Z,9.80
2023-02-13T21:09:15.427Z,10.16
2023-02-13T21:11:43.673Z,10.08
2023-02-13T21:14:11.966Z,10.09
2023-02-13T21:16:40.009Z,10.00
2023-02-13T21:19:09.471Z,9.98
2023-02-13T21:21:37.247Z,10.00
2023-02-13T21:24:08.020Z,9.88
2023-02-13T21:26:35.198Z,9.65
2023-02-13T21:29:02.090Z,9.31
2023-02-13T21:31:32.111Z,9.28
2023-02-13T21:34:04.613Z,9.44
2023-02-13T21:36:32.515Z,9.22
2023-02-13T21:38:59.912Z,9.20
2023-02-13T21:41:26.508Z,9.21
2023-02-13T21:43:53.293Z,9.16
2023-02-13T21:46:25.163Z,9.66
2023-02-13T21:48:54.142Z,9.70
2023-02-13T21:51:21.409Z,9.67
2023-02-13T21:53:48.816Z,9.60
2023-02-13T21:56:17.734Z,9.66
2023-02-13T21:58:45.076Z,9.73
2023-02-13T22:01:32.079Z,9.64
2023-02-13T22:04:01.270Z,9.78
2023-02-13T22:06:29.694Z,9.56
2023-02-13T22:09:11.253Z,9.64
2023-02-13T22:11:38.619Z,9.53
2023-02-13T22:14:07.648Z,9.46
2023-02-13T22:16:36.556Z,9.63
2023-02-13T22:19:04.247Z,9.52
2023-02-13T22:21:31.891Z,8.95
2023-02-13T22:23:58.728Z,9.27
2023-02-13T22:26:29.640Z,9.08
2023-02-13T22:29:00.132Z,9.60
2023-02-13T22:31:26.790Z,9.57
2023-02-13T22:34:03.264Z,9.62
2023-02-13T22:36:35.082Z,9.62
2023-02-13T22:39:01.592Z,9.41
2023-02-13T22:41:28.484Z,9.33
2023-02-13T22:43:55.196Z,9.57
2023-02-13T22:46:26.906Z,9.72
2023-02-13T22:48:53.923Z,9.63
2023-02-13T22:51:26.817Z,9.40
2023-02-13T22:53:54.993Z,9.20
2023-02-13T22:56:22.553Z,8.50
2023-02-13T22:58:49.272Z,8.91
2023-02-13T23:01:19.646Z,9.15
2023-02-13T23:03:46.617Z,9.02
2023-02-13T23:06:14.150Z,8.86
2023-02-13T23:08:41.409Z,8.96
2023-02-13T23:11:32.231Z,9.02
2023-02-13T23:13:59.041Z,8.90
2023-02-13T23:16:26.162Z,9.02
2023-02-13T23:18:56.929Z,9.05
2023-02-13T23:21:24.753Z,8.71
2023-02-13T23:23:51.386Z,8.80
2023-02-13T23:26:18.387Z,8.66
2023-02-13T23:28:44.965Z,8.45
2023-02-13T23:31:11.626Z,8.57
2023-02-13T23:33:38.142Z,8.51
2023-02-13T23:36:05.016Z,8.59
2023-02-13T23:38:31.496Z,8.68
2023-02-13T23:41:06.374Z,8.17
2023-02-13T23:43:33.037Z,8.14
2023-02-13T23:45:59.573Z,8.08
2023-02-13T23:48:26.102Z,7.77
2023-02-13T23:50:53.182Z,7.93
2023-02-13T23:53:19.914Z,7.08
2023-02-13T23:55:46.396Z,7.39
2023-02-13T23:58:12.864Z,7.28
